Time;durP1;ratioP1;P1;durP2;ratioP2;P2;SDS_P1;SDS_P2;PMS_P1;PMS_P2;Temp;Humidity;BMP_temperature;BMP_pressure;BME280_temperature;BME280_humidity;BME280_pressure;Samples;Min_cycle;Max_cycle;Signal;HPM_P1;HPM_P2
2022/10/21 00:02:16;;;;;;;29.40;19.93;;;;;;;;;;5039866;28;20021;-79
2022/10/21 00:04:42;;;;;;;33.50;19.97;;;;;;;;;;5043052;28;20090;-79
2022/10/21 00:07:08;;;;;;;29.43;19.77;;;;;;;;;;5039323;28;20357;-79
2022/10/21 00:09:37;;;;;;;28.57;18.77;;;;;;;;;;5037421;28;20039;-79
2022/10/21 00:12:03;;;;;;;33.13;19.80;;;;;;;;;;5038189;28;20028;-78
2022/10/21 00:14:29;;;;;;;28.70;17.77;;;;;;;;;;5038344;28;20029;-79
2022/10/21 00:16:55;;;;;;;43.13;21.03;;;;;;;;;;5038286;28;20040;-79
2022/10/21 00:19:21;;;;;;;34.10;21.57;;;;;;;;;;5038765;28;20464;-79
2022/10/21 00:21:47;;;;;;;35.97;21.73;;;;;;;;;;5039407;28;20029;-79
2022/10/21 00:24:13;;;;;;;38.80;22.43;;;;;;;;;;5041966;28;20040;-79
2022/10/21 00:26:39;;;;;;;36.30;21.40;;;;;;;;;;5042482;28;20033;-79
2022/10/21 00:29:05;;;;;;;36.23;21.50;;;;;;;;;;5042233;28;20029;-79
2022/10/21 00:31:33;;;;;;;38.57;21.03;;;;;;;;;;5042773;28;20033;-79
2022/10/21 00:33:59;;;;;;;38.23;22.37;;;;;;;;;;5041913;28;20040;-78
2022/10/21 00:36:25;;;;;;;36.57;22.10;;;;;;;;;;5043496;28;20044;-79
2022/10/21 00:38:51;;;;;;;48.13;21.90;;;;;;;;;;5041254;28;20069;-79
2022/10/21 00:41:18;;;;;;;45.33;23.83;;;;;;;;;;5042048;28;20025;-78
2022/10/21 00:43:57;;;;;;;40.43;21.00;;;;;;;;;;5042191;28;20120;-78
2022/10/21 00:46:27;;;;;;;35.97;20.17;;;;;;;;;;5029420;28;20063;-79
2022/10/21 00:48:56;;;;;;;33.67;18.83;;;;;;;;;;5044901;28;20036;-78
2022/10/21 00:51:22;;;;;;;43.23;21.23;;;;;;;;;;5041330;28;20039;-79
2022/10/21 00:53:49;;;;;;;35.80;20.77;;;;;;;;;;5041397;28;20025;-78
2022/10/21 00:56:17;;;;;;;38.43;21.30;;;;;;;;;;5040631;28;20030;-79
2022/10/21 00:58:45;;;;;;;35.80;21.20;;;;;;;;;;5041423;28;20029;-78
2022/10/21 01:01:11;;;;;;;40.73;22.37;;;;;;;;;;5041039;28;20449;-79
2022/10/21 01:03:37;;;;;;;42.97;22.20;;;;;;;;;;5040957;28;20072;-78
2022/10/21 01:06:06;;;;;;;40.23;23.03;;;;;;;;;;5040957;28;20025;-79
2022/10/21 01:08:32;;;;;;;40.80;22.23;;;;;;;;;;5040549;28;20032;-78
2022/10/21 01:10:59;;;;;;;43.17;21.60;;;;;;;;;;5041147;28;20341;-79
2022/10/21 01:13:37;;;;;;;36.90;21.13;;;;;;;;;;5040670;28;20110;-78
2022/10/21 01:16:17;;;;;;;38.00;21.73;;;;;;;;;;5041172;28;20039;-79
2022/10/21 01:18:46;;;;;;;37.33;20.93;;;;;;;;;;5049497;28;20025;-79
2022/10/21 01:21:19;;;;;;;38.83;19.50;;;;;;;;;;5041001;28;20082;-79
2022/10/21 01:23:57;;;;;;;43.37;20.07;;;;;;;;;;5045735;28;20076;-79
2022/10/21 01:26:26;;;;;;;42.43;20.07;;;;;;;;;;5028213;28;20029;-79
2022/10/21 01:28:58;;;;;;;36.10;20.57;;;;;;;;;;5036002;28;20439;-79
2022/10/21 01:31:35;;;;;;;40.80;19.50;;;;;;;;;;5041834;28;20036;-79
2022/10/21 01:34:09;;;;;;;41.30;20.10;;;;;;;;;;5040286;28;20029;-79
2022/10/21 01:36:54;;;;;;;41.97;20.00;;;;;;;;;;5037102;28;20039;-79
2022/10/21 01:39:20;;;;;;;39.23;18.70;;;;;;;;;;5051466;28;20053;-79
2022/10/21 01:42:10;;;;;;;35.13;19.33;;;;;;;;;;5039341;28;20025;-79
2022/10/21 01:44:57;;;;;;;38.60;19.23;;;;;;;;;;5043880;28;20111;-79
2022/10/21 01:47:33;;;;;;;35.13;18.63;;;;;;;;;;5053740;28;20095;-80
2022/10/21 01:50:05;;;;;;;36.07;18.40;;;;;;;;;;5034243;28;20196;-79
2022/10/21 01:52:31;;;;;;;32.75;17.58;;;;;;;;;;5038105;28;20041;-79
2022/10/21 01:55:02;;;;;;;34.87;20.10;;;;;;;;;;5029817;28;20581;-79
2022/10/21 01:57:31;;;;;;;28.70;17.10;;;;;;;;;;5053555;28;20033;-79
2022/10/21 01:59:59;;;;;;;31.97;17.73;;;;;;;;;;5043261;28;20472;-79
2022/10/21 02:02:27;;;;;;;24.73;15.90;;;;;;;;;;5052483;28;20456;-80
2022/10/21 02:04:54;;;;;;;24.43;15.23;;;;;;;;;;5032598;28;20465;-79
2022/10/21 02:07:20;;;;;;;30.63;16.23;;;;;;;;;;5036261;28;20033;-79
2022/10/21 02:09:46;;;;;;;28.17;15.63;;;;;;;;;;5037378;28;20032;-80
2022/10/21 02:12:13;;;;;;;30.07;15.13;;;;;;;;;;5035033;28;20037;-79
2022/10/21 02:14:41;;;;;;;26.57;14.57;;;;;;;;;;5033309;28;20068;-79
2022/10/21 02:17:09;;;;;;;24.97;14.53;;;;;;;;;;5036274;28;20036;-78
2022/10/21 02:19:38;;;;;;;24.37;14.40;;;;;;;;;;5036403;28;20111;-79
2022/10/21 02:22:05;;;;;;;29.00;15.73;;;;;;;;;;5035329;28;20361;-79
2022/10/21 02:24:37;;;;;;;28.23;16.30;;;;;;;;;;5053640;28;20071;-79
2022/10/21 02:27:03;;;;;;;33.85;16.02;;;;;;;;;;5051183;28;20021;-79
2022/10/21 02:29:34;;;;;;;31.03;16.10;;;;;;;;;;5032662;28;21801;-79
2022/10/21 02:32:09;;;;;;;31.30;16.63;;;;;;;;;;5035416;28;20047;-79
2022/10/21 02:34:41;;;;;;;25.27;15.80;;;;;;;;;;5019531;28;20810;-79
2022/10/21 02:37:19;;;;;;;36.05;16.23;;;;;;;;;;5035621;28;20032;-80
2022/10/21 02:39:57;;;;;;;25.40;15.40;;;;;;;;;;5052611;28;20021;-79
2022/10/21 02:42:26;;;;;;;30.37;16.20;;;;;;;;;;5035463;28;20120;-79
2022/10/21 02:44:52;;;;;;;29.47;16.50;;;;;;;;;;5035177;28;20423;-79
2022/10/21 02:47:18;;;;;;;29.13;15.83;;;;;;;;;;5051472;28;20028;-79
2022/10/21 02:49:45;;;;;;;24.27;14.73;;;;;;;;;;5055225;28;20033;-79
2022/10/21 02:52:11;;;;;;;30.87;15.77;;;;;;;;;;5039713;28;20029;-79
2022/10/21 02:54:37;;;;;;;26.70;14.93;;;;;;;;;;5054907;28;20036;-79
2022/10/21 02:57:03;;;;;;;27.77;14.27;;;;;;;;;;5036265;28;20029;-80
2022/10/21 02:59:29;;;;;;;30.20;15.17;;;;;;;;;;5036428;28;20472;-79
2022/10/21 03:01:55;;;;;;;33.43;16.03;;;;;;;;;;5033655;28;20061;-79
2022/10/21 03:04:24;;;;;;;26.57;14.93;;;;;;;;;;5035290;28;20025;-79
2022/10/21 03:06:50;;;;;;;27.23;13.53;;;;;;;;;;5036648;28;20033;-79
2022/10/21 03:09:18;;;;;;;23.03;13.93;;;;;;;;;;5027095;28;20028;-79
2022/10/21 03:11:44;;;;;;;22.23;13.07;;;;;;;;;;5035243;28;20102;-79
2022/10/21 03:14:10;;;;;;;24.67;13.73;;;;;;;;;;5032515;28;20040;-79
2022/10/21 03:16:39;;;;;;;27.17;13.97;;;;;;;;;;5035038;28;20029;-79
2022/10/21 03:19:05;;;;;;;24.00;13.50;;;;;;;;;;5035254;28;20032;-79
2022/10/21 03:21:31;;;;;;;27.60;13.50;;;;;;;;;;5033555;28;20025;-79
2022/10/21 03:23:57;;;;;;;26.17;13.47;;;;;;;;;;5035225;28;20025;-79
2022/10/21 03:26:23;;;;;;;28.10;13.50;;;;;;;;;;5028797;28;21675;-79
2022/10/21 03:28:49;;;;;;;27.63;12.87;;;;;;;;;;5034189;28;20029;-79
2022/10/21 03:31:15;;;;;;;27.27;14.37;;;;;;;;;;5035569;28;20032;-79
2022/10/21 03:33:41;;;;;;;24.50;14.30;;;;;;;;;;5027190;28;20739;-79
2022/10/21 03:36:07;;;;;;;23.07;14.23;;;;;;;;;;5035688;28;20040;-79
2022/10/21 03:38:35;;;;;;;28.30;15.07;;;;;;;;;;5038085;28;20187;-79
2022/10/21 03:41:01;;;;;;;23.47;12.73;;;;;;;;;;5055224;28;20365;-79
2022/10/21 03:43:27;;;;;;;26.97;13.73;;;;;;;;;;5037388;28;20433;-79
2022/10/21 03:45:53;;;;;;;22.67;13.27;;;;;;;;;;5037554;28;20491;-80
2022/10/21 03:48:19;;;;;;;20.63;13.23;;;;;;;;;;5037925;28;20412;-79
2022/10/21 03:50:45;;;;;;;27.60;14.63;;;;;;;;;;5037449;28;20118;-79
2022/10/21 03:53:11;;;;;;;27.20;12.60;;;;;;;;;;5037735;28;20025;-79
2022/10/21 03:55:37;;;;;;;24.00;15.07;;;;;;;;;;5037703;28;20083;-79
2022/10/21 03:58:03;;;;;;;25.93;13.43;;;;;;;;;;5040784;28;20048;-79
2022/10/21 04:00:29;;;;;;;24.40;15.13;;;;;;;;;;5041760;28;20025;-79
2022/10/21 04:02:55;;;;;;;24.47;12.57;;;;;;;;;;5041842;28;20029;-79
2022/10/21 04:05:22;;;;;;;24.67;12.80;;;;;;;;;;5059327;28;20083;-79
2022/10/21 04:07:48;;;;;;;24.10;12.73;;;;;;;;;;5041315;28;20098;-79
2022/10/21 04:10:14;;;;;;;27.43;14.07;;;;;;;;;;5042000;28;20127;-80
2022/10/21 04:12:40;;;;;;;24.77;14.20;;;;;;;;;;5042187;28;20028;-79
2022/10/21 04:15:06;;;;;;;25.07;12.97;;;;;;;;;;5044050;28;20029;-79
2022/10/21 04:17:33;;;;;;;28.03;14.67;;;;;;;;;;5060972;28;20029;-80
2022/10/21 04:19:59;;;;;;;26.13;14.00;;;;;;;;;;5042158;28;20025;-79
2022/10/21 04:22:25;;;;;;;23.50;13.50;;;;;;;;;;5058082;28;20441;-79
2022/10/21 04:24:53;;;;;;;21.10;13.30;;;;;;;;;;5041551;28;20123;-79
2022/10/21 04:27:19;;;;;;;23.37;11.63;;;;;;;;;;5025052;28;20057;-79
2022/10/21 04:29:47;;;;;;;18.53;11.20;;;;;;;;;;5034343;28;20361;-79
2022/10/21 04:32:13;;;;;;;26.90;11.83;;;;;;;;;;5041927;28;20087;-78
2022/10/21 04:34:39;;;;;;;20.57;10.37;;;;;;;;;;5041724;28;20048;-79
2022/10/21 04:37:05;;;;;;;21.40;10.90;;;;;;;;;;5038559;28;20029;-80
2022/10/21 04:39:34;;;;;;;21.83;11.43;;;;;;;;;;5031657;28;20095;-80
2022/10/21 04:42:00;;;;;;;17.13;9.97;;;;;;;;;;5059234;28;20029;-79
2022/10/21 04:44:26;;;;;;;15.17;8.83;;;;;;;;;;5042380;28;20033;-79
2022/10/21 04:46:52;;;;;;;22.80;9.40;;;;;;;;;;5042484;28;20033;-80
2022/10/21 04:49:18;;;;;;;16.27;8.93;;;;;;;;;;5043923;28;20087;-80
2022/10/21 04:51:44;;;;;;;14.13;7.23;;;;;;;;;;5040789;28;20064;-79
2022/10/21 04:54:12;;;;;;;14.37;7.17;;;;;;;;;;5040826;28;20033;-78
2022/10/21 04:56:38;;;;;;;14.13;7.67;;;;;;;;;;5040801;28;20036;-78
2022/10/21 04:59:04;;;;;;;17.00;8.43;;;;;;;;;;5058067;28;20029;-79
2022/10/21 05:01:30;;;;;;;15.93;7.70;;;;;;;;;;5040864;28;20021;-78
2022/10/21 05:03:56;;;;;;;15.90;8.30;;;;;;;;;;5041913;28;20025;-79
2022/10/21 05:06:23;;;;;;;13.30;7.97;;;;;;;;;;5043675;28;20417;-79
2022/10/21 05:08:49;;;;;;;13.43;6.60;;;;;;;;;;5057078;28;20091;-79
2022/10/21 05:11:15;;;;;;;10.73;7.17;;;;;;;;;;5040916;28;20037;-79
2022/10/21 05:13:41;;;;;;;8.20;6.00;;;;;;;;;;5043960;28;20040;-78
2022/10/21 05:16:07;;;;;;;13.40;6.47;;;;;;;;;;5040580;28;20033;-78
2022/10/21 05:18:33;;;;;;;13.70;7.77;;;;;;;;;;5041202;28;20090;-80
2022/10/21 05:20:59;;;;;;;13.10;6.03;;;;;;;;;;5030044;28;20029;-79
2022/10/21 05:23:26;;;;;;;12.10;5.77;;;;;;;;;;5042361;28;20032;-79
2022/10/21 05:25:58;;;;;;;9.95;5.85;;;;;;;;;;5033678;28;20036;-80
2022/10/21 05:28:24;;;;;;;10.45;5.90;;;;;;;;;;5045552;28;20025;-79
2022/10/21 05:30:50;;;;;;;11.53;5.50;;;;;;;;;;5040609;28;20044;-79
2022/10/21 05:33:16;;;;;;;10.05;5.85;;;;;;;;;;5041418;28;20366;-80
2022/10/21 05:35:42;;;;;;;9.43;6.10;;;;;;;;;;5046072;28;20037;-80
2022/10/21 05:38:10;;;;;;;9.13;5.40;;;;;;;;;;5040513;28;20133;-80
2022/10/21 05:40:37;;;;;;;13.90;5.57;;;;;;;;;;5040522;28;20051;-79
2022/10/21 05:43:03;;;;;;;8.65;5.20;;;;;;;;;;5040678;28;20044;-80
2022/10/21 05:45:29;;;;;;;8.23;4.80;;;;;;;;;;5040645;28;20552;-80
2022/10/21 05:47:55;;;;;;;8.77;4.80;;;;;;;;;;5037178;28;20033;-80
2022/10/21 05:50:23;;;;;;;6.13;4.50;;;;;;;;;;5050798;28;20029;-79
2022/10/21 05:52:49;;;;;;;9.73;4.65;;;;;;;;;;5020209;28;20404;-79
2022/10/21 05:55:15;;;;;;;12.63;5.13;;;;;;;;;;5033108;28;20500;-80
2022/10/21 05:57:43;;;;;;;18.50;5.88;;;;;;;;;;5039965;28;20025;-80
2022/10/21 06:00:10;;;;;;;9.57;5.20;;;;;;;;;;5040804;28;20029;-80
2022/10/21 06:02:36;;;;;;;8.60;5.22;;;;;;;;;;5040507;28;20021;-80
2022/10/21 06:05:02;;;;;;;8.23;4.50;;;;;;;;;;5040209;28;20033;-79
2022/10/21 06:07:31;;;;;;;12.00;4.70;;;;;;;;;;5039921;28;20029;-80
2022/10/21 06:09:57;;;;;;;9.98;4.38;;;;;;;;;;5040248;28;20033;-79
2022/10/21 06:12:23;;;;;;;8.40;4.30;;;;;;;;;;5040143;28;20123;-80
2022/10/21 06:14:49;;;;;;;7.97;4.47;;;;;;;;;;5057693;28;20108;-79
2022/10/21 06:17:15;;;;;;;8.68;4.25;;;;;;;;;;5040815;28;20067;-80
2022/10/21 06:19:41;;;;;;;9.52;5.35;;;;;;;;;;5040849;28;20036;-80
2022/10/21 06:22:07;;;;;;;9.02;4.82;;;;;;;;;;5040775;28;20480;-80
2022/10/21 06:24:33;;;;;;;10.38;4.53;;;;;;;;;;5039993;28;20025;-80
2022/10/21 06:26:59;;;;;;;17.67;12.73;;;;;;;;;;5039717;28;20055;-80
2022/10/21 06:29:26;;;;;;;14.80;7.45;;;;;;;;;;5040665;28;20033;-79
2022/10/21 06:31:52;;;;;;;18.07;9.27;;;;;;;;;;5041708;28;20029;-79
2022/10/21 06:34:18;;;;;;;19.27;10.40;;;;;;;;;;5040178;28;20035;-79
2022/10/21 06:36:44;;;;;;;17.13;6.70;;;;;;;;;;5037567;28;20064;-80
2022/10/21 06:39:10;;;;;;;10.50;5.85;;;;;;;;;;5043335;28;20029;-80
2022/10/21 06:41:36;;;;;;;13.27;7.72;;;;;;;;;;5042415;28;20025;-81
2022/10/21 06:44:02;;;;;;;8.13;5.10;;;;;;;;;;5029746;28;20411;-80
2022/10/21 06:46:28;;;;;;;8.70;4.97;;;;;;;;;;5046746;28;20031;-81
2022/10/21 06:48:54;;;;;;;9.02;4.72;;;;;;;;;;5042822;28;20055;-81
2022/10/21 06:51:22;;;;;;;8.45;4.38;;;;;;;;;;5041928;28;20040;-80
2022/10/21 06:53:52;;;;;;;8.60;4.53;;;;;;;;;;5058301;28;20100;-80
2022/10/21 06:56:18;;;;;;;7.68;4.72;;;;;;;;;;5040981;28;20452;-80
2022/10/21 06:58:46;;;;;;;13.55;4.45;;;;;;;;;;5041670;28;20032;-80
2022/10/21 07:01:14;;;;;;;9.50;4.50;;;;;;;;;;5039902;28;20100;-80
2022/10/21 07:03:40;;;;;;;10.65;4.57;;;;;;;;;;5041060;28;20412;-80
2022/10/21 07:06:06;;;;;;;10.10;3.67;;;;;;;;;;5041191;28;20036;-80
2022/10/21 07:08:32;;;;;;;13.55;4.35;;;;;;;;;;5041070;28;20052;-79
2022/10/21 07:10:59;;;;;;;6.35;4.05;;;;;;;;;;5040511;28;20032;-80
2022/10/21 07:13:25;;;;;;;9.40;4.40;;;;;;;;;;5057414;28;20044;-80
2022/10/21 07:15:58;;;;;;;8.88;4.07;;;;;;;;;;5040385;28;20024;-80
2022/10/21 07:18:25;;;;;;;6.82;4.53;;;;;;;;;;5044238;28;20353;-80
2022/10/21 07:20:51;;;;;;;8.35;4.03;;;;;;;;;;5041866;28;20025;-79
2022/10/21 07:23:17;;;;;;;10.75;4.30;;;;;;;;;;5044615;28;20029;-80
2022/10/21 07:25:43;;;;;;;6.57;3.72;;;;;;;;;;5042385;28;20364;-81
2022/10/21 07:28:19;;;;;;;;;;;;;;;;;;;;;
2022/10/21 07:30:46;;;;;;;6.47;3.60;;;;;;;;;;5047106;28;20081;-80
2022/10/21 07:33:12;;;;;;;10.70;5.07;;;;;;;;;;5038973;28;20036;-80
2022/10/21 07:35:40;;;;;;;12.85;6.65;;;;;;;;;;5038255;28;20125;-80
2022/10/21 07:38:06;;;;;;;13.40;5.70;;;;;;;;;;5030021;28;20021;-79
2022/10/21 07:40:32;;;;;;;11.77;7.18;;;;;;;;;;5030192;28;20098;-80
2022/10/21 07:42:59;;;;;;;5.63;3.72;;;;;;;;;;5036478;28;20057;-80
2022/10/21 07:45:25;;;;;;;17.02;5.45;;;;;;;;;;5036152;28;20028;-80
2022/10/21 07:47:51;;;;;;;13.85;4.70;;;;;;;;;;5036471;28;20040;-79
2022/10/21 07:50:17;;;;;;;8.52;5.10;;;;;;;;;;5034849;28;20584;-79
2022/10/21 07:52:46;;;;;;;8.25;3.60;;;;;;;;;;5033936;28;20932;-80
2022/10/21 07:55:15;;;;;;;7.13;3.40;;;;;;;;;;5056293;28;20021;-79
2022/10/21 07:57:41;;;;;;;10.82;4.03;;;;;;;;;;5053320;28;20036;-79
2022/10/21 08:00:08;;;;;;;14.43;5.18;;;;;;;;;;5031111;28;20025;-79
2022/10/21 08:02:34;;;;;;;11.88;5.15;;;;;;;;;;5051700;28;20067;-79
2022/10/21 08:05:00;;;;;;;10.30;5.18;;;;;;;;;;5048502;28;20029;-79
2022/10/21 08:07:27;;;;;;;10.15;5.68;;;;;;;;;;5035522;28;20120;-79
2022/10/21 08:09:56;;;;;;;11.48;5.68;;;;;;;;;;5027343;28;20055;-78
2022/10/21 08:12:22;;;;;;;17.83;6.97;;;;;;;;;;5033935;28;20029;-79
2022/10/21 08:14:48;;;;;;;19.77;8.32;;;;;;;;;;5049274;28;20361;-78
2022/10/21 08:17:14;;;;;;;16.15;9.50;;;;;;;;;;5035417;28;20039;-78
2022/10/21 08:19:40;;;;;;;13.52;7.40;;;;;;;;;;5026509;28;20104;-79
2022/10/21 08:22:06;;;;;;;17.35;7.90;;;;;;;;;;5033828;28;20032;-78
2022/10/21 08:24:33;;;;;;;14.98;8.23;;;;;;;;;;5052218;28;20017;-78
2022/10/21 08:26:59;;;;;;;20.60;6.53;;;;;;;;;;5037999;28;20040;-78
2022/10/21 08:29:25;;;;;;;14.80;6.78;;;;;;;;;;5036616;28;20033;-78
2022/10/21 08:31:51;;;;;;;9.95;6.32;;;;;;;;;;5051119;28;20033;-78
2022/10/21 08:34:18;;;;;;;10.68;5.95;;;;;;;;;;5038254;28;20032;-78
2022/10/21 08:36:44;;;;;;;10.68;6.00;;;;;;;;;;5036093;28;20142;-78
2022/10/21 08:39:10;;;;;;;15.43;7.90;;;;;;;;;;5035313;28;20033;-79
2022/10/21 08:41:55;;;;;;;15.27;6.53;;;;;;;;;;5033858;28;20037;-79
2022/10/21 08:44:50;;;;;;;10.93;6.25;;;;;;;;;;5054476;28;20040;-79
2022/10/21 08:47:44;;;;;;;12.10;6.53;;;;;;;;;;5016957;28;20041;-78
2022/10/21 08:50:19;;;;;;;10.90;6.10;;;;;;;;;;5038989;28;20124;-78
2022/10/21 08:53:04;;;;;;;12.68;6.20;;;;;;;;;;5035620;28;20037;-79
2022/10/21 08:55:38;;;;;;;13.50;6.05;;;;;;;;;;5033961;28;20038;-78
2022/10/21 08:58:05;;;;;;;10.30;5.68;;;;;;;;;;5053073;28;20032;-78
2022/10/21 09:00:37;;;;;;;14.88;7.18;;;;;;;;;;5035760;28;20044;-79
2022/10/21 09:03:03;;;;;;;16.88;7.65;;;;;;;;;;5032942;28;20032;-78
2022/10/21 09:05:37;;;;;;;13.15;8.27;;;;;;;;;;5035153;28;20028;-78
2022/10/21 09:08:16;;;;;;;14.70;6.88;;;;;;;;;;5037697;28;20063;-78
2022/10/21 09:10:59;;;;;;;16.05;6.88;;;;;;;;;;5037866;28;20037;-78
2022/10/21 09:13:39;;;;;;;13.40;6.75;;;;;;;;;;5054128;28;20346;-79
2022/10/21 09:16:10;;;;;;;11.48;6.85;;;;;;;;;;5054184;28;20085;-78
2022/10/21 09:18:43;;;;;;;14.90;7.72;;;;;;;;;;5035991;28;20090;-78
2022/10/21 09:21:45;;;;;;;14.40;5.80;;;;;;;;;;5035690;28;20029;-78
2022/10/21 09:24:19;;;;;;;10.43;5.40;;;;;;;;;;4949443;29;20039;-78
2022/10/21 09:26:47;;;;;;;10.10;6.20;;;;;;;;;;5035331;28;20051;-78
2022/10/21 09:29:13;;;;;;;9.90;5.30;;;;;;;;;;5051439;28;20029;-79
2022/10/21 09:31:39;;;;;;;14.40;6.15;;;;;;;;;;5037059;28;20029;-78
2022/10/21 09:34:11;;;;;;;9.75;6.13;;;;;;;;;;5034828;28;20025;-78
2022/10/21 09:36:46;;;;;;;14.40;5.97;;;;;;;;;;5039955;28;20029;-79
2022/10/21 09:39:22;;;;;;;12.65;5.65;;;;;;;;;;5039984;28;20036;-79
2022/10/21 09:41:51;;;;;;;11.23;5.78;;;;;;;;;;5039912;28;20020;-79
2022/10/21 09:44:19;;;;;;;13.10;6.63;;;;;;;;;;5025953;28;20029;-78
2022/10/21 09:46:45;;;;;;;8.23;5.78;;;;;;;;;;5056870;28;20033;-79
2022/10/21 09:49:18;;;;;;;10.60;5.28;;;;;;;;;;5039737;28;20021;-78
2022/10/21 09:51:45;;;;;;;12.63;7.32;;;;;;;;;;5040151;28;20033;-78
2022/10/21 09:54:11;;;;;;;14.50;6.40;;;;;;;;;;5039609;28;20433;-79
2022/10/21 09:56:40;;;;;;;10.63;5.47;;;;;;;;;;5039556;28;20138;-79
2022/10/21 09:59:13;;;;;;;9.63;4.60;;;;;;;;;;5041285;28;20119;-79
2022/10/21 10:01:40;;;;;;;10.60;4.72;;;;;;;;;;5040643;28;20123;-79
2022/10/21 10:04:11;;;;;;;9.23;6.05;;;;;;;;;;5040173;28;20029;-79
2022/10/21 10:06:39;;;;;;;9.10;5.60;;;;;;;;;;5041936;28;20024;-78
2022/10/21 10:09:15;;;;;;;11.15;6.57;;;;;;;;;;5041477;28;20025;-79
2022/10/21 10:11:49;;;;;;;10.13;4.65;;;;;;;;;;5057945;28;20025;-79
2022/10/21 10:14:26;;;;;;;10.43;4.38;;;;;;;;;;5039979;28;20461;-78
2022/10/21 10:16:52;;;;;;;10.05;5.13;;;;;;;;;;5039685;28;20075;-79
2022/10/21 10:19:27;;;;;;;8.85;3.85;;;;;;;;;;5040692;28;20119;-78
2022/10/21 10:22:17;;;;;;;6.90;4.20;;;;;;;;;;5049109;28;20036;-79
2022/10/21 10:24:43;;;;;;;9.68;4.18;;;;;;;;;;5033645;28;20033;-78
2022/10/21 10:27:16;;;;;;;6.93;4.25;;;;;;;;;;5060922;28;20029;-79
2022/10/21 10:29:48;;;;;;;15.65;4.90;;;;;;;;;;5056616;28;20021;-78
2022/10/21 10:32:15;;;;;;;10.93;6.20;;;;;;;;;;5034295;28;20446;-78
2022/10/21 10:35:04;;;;;;;16.05;4.93;;;;;;;;;;5038609;28;20040;-79
2022/10/21 10:37:35;;;;;;;10.40;5.78;;;;;;;;;;5039253;28;20086;-78
2022/10/21 10:40:03;;;;;;;10.40;5.90;;;;;;;;;;5039295;28;20028;-79
2022/10/21 10:42:34;;;;;;;11.30;6.45;;;;;;;;;;5038535;28;20112;-78
2022/10/21 10:45:03;;;;;;;13.73;7.43;;;;;;;;;;5038834;28;20033;-79
2022/10/21 10:47:31;;;;;;;9.45;5.00;;;;;;;;;;5038697;28;20034;-79
2022/10/21 10:49:57;;;;;;;26.25;16.48;;;;;;;;;;5034939;28;20021;-79
2022/10/21 10:52:24;;;;;;;19.23;12.15;;;;;;;;;;5038329;28;20078;-78
2022/10/21 10:55:09;;;;;;;18.92;11.18;;;;;;;;;;5055805;28;20048;-78
2022/10/21 10:57:36;;;;;;;17.45;13.45;;;;;;;;;;5058378;28;20182;-79
2022/10/21 11:00:15;;;;;;;25.52;13.70;;;;;;;;;;5038427;28;20111;-79
2022/10/21 11:02:48;;;;;;;36.25;13.55;;;;;;;;;;5034671;28;20461;-79
2022/10/21 11:05:23;;;;;;;23.65;9.32;;;;;;;;;;5028670;28;20138;-79
2022/10/21 11:07:50;;;;;;;25.90;9.68;;;;;;;;;;5037686;28;20124;-78
2022/10/21 11:10:16;;;;;;;15.13;7.15;;;;;;;;;;5038264;28;20024;-79
2022/10/21 11:12:42;;;;;;;22.00;7.25;;;;;;;;;;5038338;28;20488;-78
2022/10/21 11:15:13;;;;;;;14.30;7.05;;;;;;;;;;5038258;28;20025;-78
2022/10/21 11:17:40;;;;;;;12.88;5.93;;;;;;;;;;5038040;28;20434;-79
2022/10/21 11:20:26;;;;;;;9.40;5.65;;;;;;;;;;5034682;28;20017;-78
2022/10/21 11:23:12;;;;;;;13.32;5.50;;;;;;;;;;5050135;28;20049;-79
2022/10/21 11:25:42;;;;;;;12.57;7.22;;;;;;;;;;5042383;28;20025;-79
2022/10/21 11:28:11;;;;;;;15.27;5.47;;;;;;;;;;5038835;28;20037;-78
2022/10/21 11:30:55;;;;;;;11.82;6.25;;;;;;;;;;5041909;28;20033;-79
2022/10/21 11:33:28;;;;;;;13.95;5.22;;;;;;;;;;5035210;28;20032;-79
2022/10/21 11:36:12;;;;;;;10.32;5.45;;;;;;;;;;5042102;28;20425;-79
2022/10/21 11:38:57;;;;;;;8.80;4.28;;;;;;;;;;5037904;28;20029;-80
2022/10/21 11:41:36;;;;;;;15.63;4.85;;;;;;;;;;5037593;28;20480;-78
2022/10/21 11:44:02;;;;;;;16.67;5.53;;;;;;;;;;5037402;28;20526;-79
2022/10/21 11:46:37;;;;;;;11.40;5.28;;;;;;;;;;5037604;28;20550;-78
2022/10/21 11:49:03;;;;;;;9.52;4.55;;;;;;;;;;5037754;28;20334;-79
2022/10/21 11:51:48;;;;;;;12.20;5.07;;;;;;;;;;5037693;28;20028;-79
2022/10/21 11:54:26;;;;;;;14.70;7.63;;;;;;;;;;5038157;28;20025;-79
2022/10/21 11:57:01;;;;;;;10.25;5.93;;;;;;;;;;5055290;28;20084;-80
2022/10/21 11:59:46;;;;;;;8.18;4.80;;;;;;;;;;5037521;28;20491;-78
2022/10/21 12:02:31;;;;;;;8.40;4.90;;;;;;;;;;5037364;28;20845;-79
2022/10/21 12:05:06;;;;;;;8.98;4.43;;;;;;;;;;5042519;28;20025;-79
2022/10/21 12:07:42;;;;;;;7.88;4.43;;;;;;;;;;5036938;28;20021;-79
2022/10/21 12:10:16;;;;;;;8.93;4.18;;;;;;;;;;5026814;28;20032;-79
2022/10/21 12:12:45;;;;;;;8.68;3.75;;;;;;;;;;5038281;28;20029;-80
2022/10/21 12:15:14;;;;;;;8.05;4.30;;;;;;;;;;5038131;28;20036;-79
2022/10/21 12:17:40;;;;;;;9.88;3.75;;;;;;;;;;5039307;28;20033;-79
2022/10/21 12:20:12;;;;;;;7.63;3.95;;;;;;;;;;5042947;28;20021;-79
2022/10/21 12:22:39;;;;;;;5.93;3.70;;;;;;;;;;5060207;28;20029;-79
2022/10/21 12:25:08;;;;;;;4.97;2.88;;;;;;;;;;5041640;28;20029;-79
2022/10/21 12:27:52;;;;;;;5.85;3.22;;;;;;;;;;5041588;28;20029;-79
2022/10/21 12:30:30;;;;;;;4.93;3.30;;;;;;;;;;5041623;28;20037;-79
2022/10/21 12:33:16;;;;;;;10.18;2.90;;;;;;;;;;5031737;28;20029;-80
2022/10/21 12:35:46;;;;;;;6.80;2.65;;;;;;;;;;5037236;28;20446;-79
2022/10/21 12:38:20;;;;;;;3.22;2.45;;;;;;;;;;5050094;28;20036;-79
2022/10/21 12:40:47;;;;;;;4.10;2.45;;;;;;;;;;5041426;28;20029;-80
2022/10/21 12:43:27;;;;;;;5.07;2.03;;;;;;;;;;5038418;28;20045;-79
2022/10/21 12:46:04;;;;;;;5.18;2.40;;;;;;;;;;5052054;28;20515;-80
2022/10/21 12:48:32;;;;;;;4.25;2.70;;;;;;;;;;5050721;28;20041;-79
2022/10/21 12:51:02;;;;;;;4.25;2.20;;;;;;;;;;5043068;28;20086;-79
2022/10/21 12:53:37;;;;;;;3.50;2.28;;;;;;;;;;5041760;28;20029;-79
2022/10/21 12:56:06;;;;;;;5.63;2.20;;;;;;;;;;5041478;28;20031;-79
2022/10/21 12:58:36;;;;;;;7.28;2.60;;;;;;;;;;5043887;28;20036;-79
2022/10/21 13:01:02;;;;;;;6.78;2.83;;;;;;;;;;5041155;28;20049;-79
2022/10/21 13:03:43;;;;;;;6.78;2.40;;;;;;;;;;5040934;28;20442;-80
2022/10/21 13:06:10;;;;;;;6.13;2.50;;;;;;;;;;5042142;28;20033;-79
2022/10/21 13:08:51;;;;;;;6.55;2.45;;;;;;;;;;5041666;28;20024;-80
2022/10/21 13:11:21;;;;;;;5.03;2.47;;;;;;;;;;5044298;28;20025;-80
2022/10/21 13:13:48;;;;;;;4.63;2.70;;;;;;;;;;5038763;28;20037;-79
2022/10/21 13:16:18;;;;;;;6.93;2.65;;;;;;;;;;5044446;28;20032;-79
2022/10/21 13:18:50;;;;;;;5.72;2.13;;;;;;;;;;5043859;28;20028;-79
2022/10/21 13:21:23;;;;;;;6.80;2.45;;;;;;;;;;5027060;28;20029;-80
2022/10/21 13:23:53;;;;;;;6.00;2.05;;;;;;;;;;5037502;28;20021;-79
2022/10/21 13:26:23;;;;;;;6.32;2.28;;;;;;;;;;5029299;28;20112;-79
2022/10/21 13:29:08;;;;;;;3.22;1.45;;;;;;;;;;5050351;28;20113;-79
2022/10/21 13:31:34;;;;;;;4.75;2.25;;;;;;;;;;5050000;28;20021;-79
2022/10/21 13:34:00;;;;;;;9.25;2.10;;;;;;;;;;5039523;28;20021;-79
2022/10/21 13:36:35;;;;;;;4.43;1.67;;;;;;;;;;5035480;28;20018;-79
2022/10/21 13:39:21;;;;;;;2.95;1.20;;;;;;;;;;5054419;28;20392;-80
2022/10/21 13:41:55;;;;;;;6.13;1.42;;;;;;;;;;5050906;28;20029;-80
2022/10/21 13:44:28;;;;;;;2.72;1.23;;;;;;;;;;5054336;28;20045;-81
2022/10/21 13:46:54;;;;;;;2.65;1.27;;;;;;;;;;5054174;28;20029;-81
2022/10/21 13:49:32;;;;;;;2.60;1.42;;;;;;;;;;5036090;28;20094;-81
2022/10/21 13:51:58;;;;;;;3.08;1.20;;;;;;;;;;5026957;28;20028;-81
2022/10/21 13:54:24;;;;;;;5.55;1.60;;;;;;;;;;5028843;28;20032;-81
2022/10/21 13:56:50;;;;;;;2.92;1.15;;;;;;;;;;5049882;28;20112;-79
2022/10/21 13:59:28;;;;;;;4.00;1.27;;;;;;;;;;5036057;28;20431;-79
2022/10/21 14:01:56;;;;;;;7.15;2.38;;;;;;;;;;5034926;28;20017;-79
2022/10/21 14:04:25;;;;;;;2.97;1.40;;;;;;;;;;5035024;28;21613;-79
2022/10/21 14:06:57;;;;;;;3.40;1.23;;;;;;;;;;5052754;28;20032;-80
2022/10/21 14:09:26;;;;;;;6.57;1.50;;;;;;;;;;5052468;28;20024;-80
2022/10/21 14:11:56;;;;;;;3.08;1.90;;;;;;;;;;5029424;28;20040;-80
2022/10/21 14:14:23;;;;;;;6.10;1.45;;;;;;;;;;5035309;28;20405;-80
2022/10/21 14:16:52;;;;;;;3.78;1.67;;;;;;;;;;5036292;28;20616;-80
2022/10/21 14:19:22;;;;;;;6.90;2.10;;;;;;;;;;5037108;28;20021;-80
2022/10/21 14:21:51;;;;;;;4.32;1.13;;;;;;;;;;5037532;28;20016;-80
2022/10/21 14:24:43;;;;;;;2.75;1.05;;;;;;;;;;5031689;28;20048;-79
2022/10/21 14:27:09;;;;;;;;;;;;;;;;;;5036966;28;20036;-80
2022/10/21 14:29:35;;;;;;;2.72;1.42;;;;;;;;;;5050364;28;19914;-80
2022/10/21 14:32:02;;;;;;;4.20;0.82;;;;;;;;;;5036824;28;20020;-79
2022/10/21 14:34:29;;;;;;;2.05;0.70;;;;;;;;;;5030260;28;20446;-80
2022/10/21 14:37:18;;;;;;;6.00;1.83;;;;;;;;;;5034796;28;20028;-80
2022/10/21 14:39:45;;;;;;;4.97;1.25;;;;;;;;;;5041353;28;20038;-79
2022/10/21 14:42:22;;;;;;;3.53;1.10;;;;;;;;;;5037139;28;20458;-79
2022/10/21 14:44:50;;;;;;;2.65;0.80;;;;;;;;;;5035601;28;20038;-79
2022/10/21 14:47:23;;;;;;;2.85;0.82;;;;;;;;;;5036591;28;20099;-79